Time;durP1;ratioP1;P1;durP2;ratioP2;P2;SDS_P1;SDS_P2;PMS_P1;PMS_P2;Temp;Humidity;BMP_temperature;BMP_pressure;BME280_temperature;BME280_humidity;BME280_pressure;Samples;Min_cycle;Max_cycle;Signal;HPM_P1;HPM_P2
2022/12/09 00:00:04;;;;;;;20.77;14.55;;;3.90;99.90;;;;;;2055768;28;20035;-69
2022/12/09 00:01:18;;;;;;;20.70;14.27;;;3.90;99.90;;;;;;2055596;28;20110;-69
2022/12/09 00:02:19;;;;;;;21.75;14.05;;;3.90;99.90;;;;;;2055901;28;20030;-69
2022/12/09 00:03:20;;;;;;;22.95;15.23;;;3.90;99.90;;;;;;2055901;28;20134;-69
2022/12/09 00:04:20;;;;;;;21.17;14.80;;;3.90;99.90;;;;;;2055764;28;20134;-69
2022/12/09 00:05:21;;;;;;;21.13;14.38;;;3.90;99.90;;;;;;2055736;28;20027;-69
2022/12/09 00:06:24;;;;;;;21.30;14.88;;;3.90;99.90;;;;;;2055464;28;20069;-69
2022/12/09 00:07:25;;;;;;;21.48;15.07;;;3.90;99.90;;;;;;2055686;28;20067;-69
2022/12/09 00:08:28;;;;;;;21.90;14.85;;;3.90;99.90;;;;;;2055663;28;20057;-69
2022/12/09 00:09:29;;;;;;;22.38;15.75;;;3.90;99.90;;;;;;2055673;28;20027;-70
2022/12/09 00:10:30;;;;;;;22.67;15.48;;;3.90;99.90;;;;;;2054918;28;20489;-70
2022/12/09 00:11:30;;;;;;;21.75;15.18;;;3.90;99.90;;;;;;2055484;28;20031;-69
2022/12/09 00:12:31;;;;;;;20.92;14.75;;;3.90;99.90;;;;;;2055719;28;20082;-69
2022/12/09 00:13:32;;;;;;;20.60;14.57;;;3.90;99.90;;;;;;2055684;28;20125;-70
2022/12/09 00:14:33;;;;;;;21.63;14.75;;;3.90;99.90;;;;;;2055351;28;20110;-71
2022/12/09 00:15:41;;;;;;;22.75;15.13;;;3.90;99.90;;;;;;2054422;28;20034;-69
2022/12/09 00:16:41;;;;;;;21.83;15.25;;;3.90;99.90;;;;;;2054966;28;20019;-70
2022/12/09 00:17:42;;;;;;;21.52;14.73;;;3.90;99.90;;;;;;2055316;28;20386;-70
2022/12/09 00:18:43;;;;;;;22.10;15.20;;;3.90;99.90;;;;;;2055075;28;20119;-69
2022/12/09 00:19:44;;;;;;;23.42;16.02;;;3.90;99.90;;;;;;2055636;28;20019;-69
2022/12/09 00:20:45;;;;;;;22.48;15.10;;;3.90;99.90;;;;;;2055854;28;20089;-68
2022/12/09 00:21:46;;;;;;;21.50;15.25;;;3.80;99.90;;;;;;2055758;28;20689;-68
2022/12/09 00:22:46;;;;;;;20.27;14.68;;;3.90;99.90;;;;;;2055535;28;20477;-71
2022/12/09 00:23:48;;;;;;;20.85;14.65;;;3.80;99.90;;;;;;2055457;28;20114;-70
2022/12/09 00:24:49;;;;;;;21.75;15.13;;;3.90;99.90;;;;;;2047493;28;20067;-70
2022/12/09 00:25:49;;;;;;;21.90;15.27;;;3.90;99.90;;;;;;2055412;28;20034;-70
2022/12/09 00:26:50;;;;;;;21.60;14.98;;;3.90;99.90;;;;;;2055306;28;20015;-71
2022/12/09 00:27:51;;;;;;;20.63;14.07;;;3.80;99.90;;;;;;2055307;28;20027;-70
2022/12/09 00:28:52;;;;;;;21.48;14.93;;;3.80;99.90;;;;;;2055592;28;20117;-70
2022/12/09 00:29:53;;;;;;;22.50;15.43;;;3.80;99.90;;;;;;2055393;28;20023;-70
2022/12/09 00:30:57;;;;;;;21.58;14.60;;;3.80;99.90;;;;;;2055622;28;20041;-69
2022/12/09 00:31:58;;;;;;;22.30;14.80;;;3.80;99.90;;;;;;2062697;28;20048;-69
2022/12/09 00:32:58;;;;;;;21.48;14.65;;;3.80;99.90;;;;;;2055022;28;20549;-71
2022/12/09 00:34:05;;;;;;;21.13;14.73;;;3.80;99.90;;;;;;2054992;28;20077;-68
2022/12/09 00:35:06;;;;;;;20.83;14.88;;;3.90;99.90;;;;;;2055191;28;20035;-70
2022/12/09 00:36:11;;;;;;;21.15;14.48;;;3.90;99.90;;;;;;2055438;28;20030;-70
2022/12/09 00:37:12;;;;;;;21.65;14.75;;;3.90;99.90;;;;;;2062566;28;20524;-70
2022/12/09 00:38:13;;;;;;;20.95;14.90;;;3.90;99.90;;;;;;2054917;28;20038;-70
2022/12/09 00:39:14;;;;;;;23.27;15.40;;;3.80;99.90;;;;;;2054859;28;20544;-70
2022/12/09 00:40:15;;;;;;;23.33;15.57;;;3.90;99.90;;;;;;2054779;28;20531;-69
2022/12/09 00:41:17;;;;;;;23.83;16.38;;;3.80;99.90;;;;;;2054772;28;20046;-70
2022/12/09 00:42:20;;;;;;;23.17;15.93;;;3.90;99.90;;;;;;2054734;28;20033;-70
2022/12/09 00:43:20;;;;;;;23.45;15.82;;;3.80;99.90;;;;;;2055013;28;20125;-71
2022/12/09 00:44:21;;;;;;;23.13;16.27;;;3.90;99.90;;;;;;2058616;28;20031;-70
2022/12/09 00:45:22;;;;;;;22.45;15.52;;;3.90;99.90;;;;;;2059082;28;20456;-70
2022/12/09 00:46:23;;;;;;;22.92;14.98;;;3.80;99.90;;;;;;2055086;28;20058;-70
2022/12/09 00:47:24;;;;;;;21.17;15.10;;;3.80;99.90;;;;;;2062647;28;20646;-70
2022/12/09 00:48:25;;;;;;;22.33;15.65;;;3.80;99.90;;;;;;2054555;28;20507;-70
2022/12/09 00:49:26;;;;;;;25.63;16.83;;;3.80;99.90;;;;;;2054660;28;20015;-69
2022/12/09 00:50:30;;;;;;;24.17;16.30;;;3.90;99.90;;;;;;2055463;28;20047;-69
2022/12/09 00:51:34;;;;;;;23.83;16.70;;;3.90;99.90;;;;;;2055470;28;20035;-69
2022/12/09 00:52:35;;;;;;;25.02;16.98;;;3.90;99.90;;;;;;2055279;28;20385;-70
2022/12/09 00:53:35;;;;;;;24.45;16.77;;;3.90;99.90;;;;;;2055378;28;20035;-69
2022/12/09 00:54:36;;;;;;;24.23;16.23;;;3.90;99.90;;;;;;2062649;28;20029;-70
2022/12/09 00:55:38;;;;;;;23.83;16.85;;;3.90;99.90;;;;;;2062562;28;20661;-70
2022/12/09 00:56:38;;;;;;;23.17;15.65;;;3.80;99.90;;;;;;2055289;28;20035;-69
2022/12/09 00:57:39;;;;;;;23.17;16.08;;;3.80;99.90;;;;;;2055332;28;20026;-70
2022/12/09 00:58:40;;;;;;;23.10;16.00;;;3.80;99.90;;;;;;2055300;28;20128;-70
2022/12/09 00:59:41;;;;;;;22.70;15.85;;;3.80;99.90;;;;;;2055347;28;20023;-69
2022/12/09 01:00:42;;;;;;;23.92;17.27;;;3.80;99.90;;;;;;2055416;28;20042;-70
2022/12/09 01:01:42;;;;;;;23.45;16.88;;;3.80;99.90;;;;;;2055362;28;20615;-70
2022/12/09 01:02:43;;;;;;;23.40;16.10;;;3.80;99.90;;;;;;2055024;28;20026;-70
2022/12/09 01:03:44;;;;;;;23.20;16.30;;;3.80;99.90;;;;;;2062576;28;20022;-69
2022/12/09 01:04:44;;;;;;;22.30;15.80;;;3.80;99.90;;;;;;2062649;28;20564;-69
2022/12/09 01:05:45;;;;;;;23.83;16.15;;;3.80;99.90;;;;;;2054434;28;20556;-70
2022/12/09 01:06:46;;;;;;;23.00;15.50;;;3.70;99.90;;;;;;2054730;28;20023;-69
2022/12/09 01:07:47;;;;;;;22.27;15.02;;;3.80;99.90;;;;;;2054745;28;20037;-70
2022/12/09 01:08:48;;;;;;;22.40;15.63;;;3.80;99.90;;;;;;2054795;28;20430;-70
2022/12/09 01:09:49;;;;;;;22.33;15.32;;;3.80;99.90;;;;;;2054611;28;20114;-69
2022/12/09 01:10:50;;;;;;;21.23;15.02;;;3.80;99.90;;;;;;2054676;28;20790;-68
2022/12/09 01:11:50;;;;;;;20.33;14.55;;;3.80;99.90;;;;;;2055307;28;20031;-70
2022/12/09 01:12:51;;;;;;;22.70;15.80;;;3.70;99.90;;;;;;2055326;28;20046;-70
2022/12/09 01:13:52;;;;;;;23.65;16.13;;;3.80;99.90;;;;;;2055337;28;20035;-70
2022/12/09 01:14:54;;;;;;;24.45;16.80;;;3.70;99.90;;;;;;2055146;28;20133;-70
2022/12/09 01:15:55;;;;;;;25.08;17.70;;;3.80;99.90;;;;;;2054805;28;20022;-69
2022/12/09 01:16:56;;;;;;;23.70;16.52;;;3.80;99.90;;;;;;2055198;28;20456;-69
2022/12/09 01:17:57;;;;;;;25.08;17.02;;;3.70;99.90;;;;;;2054640;28;20061;-68
2022/12/09 01:19:02;;;;;;;24.13;16.70;;;3.70;99.90;;;;;;2054441;28;20106;-68
2022/12/09 01:20:05;;;;;;;25.70;17.73;;;3.70;99.90;;;;;;2064479;28;20070;-68
2022/12/09 01:21:06;;;;;;;23.60;16.63;;;3.70;99.90;;;;;;2072363;28;20046;-69
2022/12/09 01:22:06;;;;;;;22.52;15.82;;;3.70;99.90;;;;;;2057063;28;20047;-69
2022/12/09 01:23:07;;;;;;;23.73;16.50;;;3.70;99.90;;;;;;2051252;28;20031;-69
2022/12/09 01:24:09;;;;;;;21.85;15.48;;;3.70;99.90;;;;;;2055274;28;20030;-69
2022/12/09 01:25:10;;;;;;;24.33;16.25;;;3.70;99.90;;;;;;2054407;28;20018;-69
2022/12/09 01:26:11;;;;;;;22.55;15.82;;;3.70;99.90;;;;;;2054370;28;20031;-70
2022/12/09 01:27:12;;;;;;;25.45;16.70;;;3.80;99.90;;;;;;2055094;28;20037;-71
2022/12/09 01:28:13;;;;;;;26.42;17.35;;;3.80;99.90;;;;;;2062321;28;20092;-69
2022/12/09 01:29:14;;;;;;;24.10;16.63;;;3.80;99.90;;;;;;2062619;28;20423;-70
2022/12/09 01:30:15;;;;;;;22.85;16.13;;;3.80;99.90;;;;;;2055235;28;20031;-70
2022/12/09 01:31:18;;;;;;;24.35;16.38;;;3.70;99.90;;;;;;2062584;28;20037;-70
2022/12/09 01:32:19;;;;;;;24.65;16.35;;;3.70;99.90;;;;;;2062264;28;20061;-70
2022/12/09 01:33:20;;;;;;;23.90;16.13;;;3.80;99.90;;;;;;2054800;28;20118;-69
2022/12/09 01:34:20;;;;;;;24.25;15.63;;;3.70;99.90;;;;;;2054284;28;20346;-70
2022/12/09 01:35:21;;;;;;;22.92;16.00;;;3.70;99.90;;;;;;2042675;28;20034;-70
2022/12/09 01:36:26;;;;;;;23.90;16.30;;;3.70;99.90;;;;;;2054206;28;20420;-68
2022/12/09 01:37:26;;;;;;;21.45;15.45;;;3.70;99.90;;;;;;2051994;28;20122;-69
2022/12/09 01:38:27;;;;;;;24.88;16.20;;;3.80;99.90;;;;;;2054503;28;20541;-69
2022/12/09 01:39:28;;;;;;;24.73;16.88;;;3.70;99.90;;;;;;2055000;28;20074;-70
2022/12/09 01:40:28;;;;;;;24.15;16.63;;;3.80;99.90;;;;;;2059712;28;20031;-69
2022/12/09 01:41:29;;;;;;;23.20;16.33;;;3.70;99.90;;;;;;2052064;28;20065;-69
2022/12/09 01:42:31;;;;;;;24.10;16.67;;;3.70;99.90;;;;;;2046742;29;20027;-69
2022/12/09 01:43:32;;;;;;;24.90;16.33;;;3.70;99.90;;;;;;2054586;28;20109;-69
2022/12/09 01:44:33;;;;;;;22.92;16.08;;;3.70;99.90;;;;;;2057323;28;20497;-69
2022/12/09 01:45:38;;;;;;;22.73;15.70;;;3.70;99.90;;;;;;2058356;28;20023;-70
2022/12/09 01:46:40;;;;;;;22.38;15.73;;;3.70;99.90;;;;;;2059219;28;20047;-69
2022/12/09 01:47:41;;;;;;;23.33;16.35;;;3.70;99.90;;;;;;2059184;28;20023;-70
2022/12/09 01:48:45;;;;;;;23.92;16.52;;;3.70;99.90;;;;;;2051833;28;20091;-70
2022/12/09 01:49:46;;;;;;;24.05;16.30;;;3.70;99.90;;;;;;2059160;28;20074;-69
2022/12/09 01:50:53;;;;;;;23.40;16.35;;;3.70;99.90;;;;;;2059697;28;20027;-70
2022/12/09 01:52:07;;;;;;;24.02;16.25;;;3.80;99.90;;;;;;2060493;28;20085;-69
2022/12/09 01:53:10;;;;;;;23.52;16.15;;;3.80;99.90;;;;;;2050670;28;20030;-69
2022/12/09 01:54:11;;;;;;;24.48;16.95;;;3.80;99.90;;;;;;2055200;28;20042;-69
2022/12/09 01:55:12;;;;;;;26.67;17.63;;;3.80;99.90;;;;;;2055450;28;20106;-69
2022/12/09 01:56:22;;;;;;;24.80;16.92;;;3.80;99.90;;;;;;2054273;28;20039;-69
2022/12/09 01:57:23;;;;;;;26.52;17.25;;;3.80;99.90;;;;;;2054656;28;20041;-68
2022/12/09 01:58:26;;;;;;;25.90;17.00;;;3.80;99.90;;;;;;2054588;28;20129;-70
2022/12/09 01:59:27;;;;;;;23.42;16.17;;;3.80;99.90;;;;;;2046575;28;20035;-69
2022/12/09 02:00:28;;;;;;;25.00;16.98;;;3.80;99.90;;;;;;2054405;28;20030;-69
2022/12/09 02:01:31;;;;;;;23.35;16.23;;;3.80;99.90;;;;;;2046521;28;20219;-69
2022/12/09 02:02:35;;;;;;;24.88;17.02;;;3.80;99.90;;;;;;2054486;28;20030;-69
2022/12/09 02:03:36;;;;;;;26.15;16.75;;;3.80;99.90;;;;;;2054217;28;20421;-69
2022/12/09 02:04:40;;;;;;;26.92;17.52;;;3.70;99.90;;;;;;2054316;28;20031;-69
2022/12/09 02:05:44;;;;;;;26.13;17.23;;;3.80;99.90;;;;;;2054143;28;20165;-69
2022/12/09 02:06:45;;;;;;;25.25;16.58;;;3.70;99.90;;;;;;2046837;28;20047;-69
2022/12/09 02:07:47;;;;;;;25.55;16.67;;;3.80;99.90;;;;;;2046941;28;20034;-69
2022/12/09 02:08:50;;;;;;;24.10;16.77;;;3.70;99.90;;;;;;2047397;28;20031;-69
2022/12/09 02:09:52;;;;;;;27.83;17.58;;;3.70;99.90;;;;;;2055038;28;20030;-69
2022/12/09 02:11:24;;;;;;;26.48;17.58;;;3.70;99.90;;;;;;2047587;28;20032;-69
2022/12/09 02:12:49;;;;;;;25.90;17.20;;;3.70;99.90;;;;;;2055313;28;20023;-69
2022/12/09 02:14:14;;;;;;;25.05;16.58;;;3.70;99.90;;;;;;2054753;28;20130;-71
2022/12/09 02:15:33;;;;;;;25.70;17.33;;;3.70;99.90;;;;;;2049986;28;20030;-69
2022/12/09 02:16:59;;;;;;;27.05;17.10;;;3.70;99.90;;;;;;2049676;28;20150;-69
2022/12/09 02:18:06;;;;;;;26.92;17.50;;;3.70;99.90;;;;;;2044526;28;20036;-69
2022/12/09 02:19:12;;;;;;;26.33;17.80;;;3.70;99.90;;;;;;2055884;28;20027;-70
2022/12/09 02:20:19;;;;;;;28.60;17.58;;;3.70;99.90;;;;;;2068222;28;20045;-70
2022/12/09 02:21:34;;;;;;;26.10;17.20;;;3.70;99.90;;;;;;2060680;28;20022;-69
2022/12/09 02:22:44;;;;;;;25.05;17.00;;;3.70;99.90;;;;;;2057785;28;20031;-70
2022/12/09 02:23:58;;;;;;;26.63;17.42;;;3.70;99.90;;;;;;2054983;28;20034;-70
2022/12/09 02:25:18;;;;;;;25.35;16.85;;;3.70;99.90;;;;;;2055872;28;20098;-69
2022/12/09 02:26:54;;;;;;;25.70;17.23;;;3.70;99.90;;;;;;2056075;28;20041;-70
2022/12/09 02:28:13;;;;;;;25.80;16.60;;;3.70;99.90;;;;;;2052002;28;20035;-69
2022/12/09 02:29:32;;;;;;;26.27;16.67;;;3.70;99.90;;;;;;2060495;28;20023;-69
2022/12/09 02:30:50;;;;;;;26.30;17.67;;;3.60;99.90;;;;;;2056950;28;20122;-69
2022/12/09 02:32:11;;;;;;;27.67;17.88;;;3.60;99.90;;;;;;2047319;28;20034;-69
2022/12/09 02:33:39;;;;;;;26.90;17.27;;;3.60;99.90;;;;;;2054414;28;20560;-69
2022/12/09 02:34:52;;;;;;;25.52;16.63;;;3.60;99.90;;;;;;2055667;28;20061;-69
2022/12/09 02:36:00;;;;;;;26.58;16.73;;;3.60;99.90;;;;;;2049259;28;20130;-69
2022/12/09 02:37:15;;;;;;;25.20;17.33;;;3.70;99.90;;;;;;2052071;28;20045;-69
2022/12/09 02:38:24;;;;;;;25.98;16.55;;;3.60;99.90;;;;;;2050129;28;20035;-69
2022/12/09 02:39:34;;;;;;;26.38;17.20;;;3.60;99.90;;;;;;2055672;28;20019;-69
2022/12/09 02:40:53;;;;;;;24.92;16.38;;;3.70;99.90;;;;;;2063981;28;20104;-69
2022/12/09 02:41:57;;;;;;;26.77;16.73;;;3.60;99.90;;;;;;2047811;29;20058;-69
2022/12/09 02:43:01;;;;;;;26.70;17.38;;;3.60;99.90;;;;;;2048573;28;20023;-70
2022/12/09 02:44:09;;;;;;;28.35;18.95;;;3.60;99.90;;;;;;2055555;28;20125;-69
2022/12/09 02:45:12;;;;;;;26.60;17.73;;;3.60;99.90;;;;;;2048754;28;20126;-70
2022/12/09 02:46:19;;;;;;;25.52;17.40;;;3.60;99.90;;;;;;2048250;28;20031;-70
2022/12/09 02:47:24;;;;;;;26.05;17.60;;;3.60;99.90;;;;;;2048166;28;20035;-69
2022/12/09 02:48:32;;;;;;;27.00;17.65;;;3.60;99.90;;;;;;2048269;28;20024;-69
2022/12/09 02:49:35;;;;;;;25.58;17.20;;;3.60;99.90;;;;;;2048644;28;20035;-70
2022/12/09 02:50:39;;;;;;;24.92;16.58;;;3.60;99.90;;;;;;2047787;28;20113;-70
2022/12/09 02:51:41;;;;;;;24.65;16.23;;;3.60;99.90;;;;;;2047869;28;20417;-70
2022/12/09 02:52:44;;;;;;;24.80;16.85;;;3.60;99.90;;;;;;2048011;28;20035;-70
2022/12/09 02:53:51;;;;;;;23.58;15.93;;;3.60;99.90;;;;;;2047896;28;20023;-70
2022/12/09 02:54:52;;;;;;;24.23;16.67;;;3.60;99.90;;;;;;2048432;28;20046;-70
2022/12/09 02:55:55;;;;;;;25.50;17.35;;;3.60;99.90;;;;;;2047402;28;20032;-70
2022/12/09 02:57:07;;;;;;;24.13;16.08;;;3.60;99.90;;;;;;2055679;28;20031;-70
2022/12/09 02:58:08;;;;;;;26.00;17.25;;;3.60;99.90;;;;;;2055951;28;20078;-70
2022/12/09 02:59:10;;;;;;;23.75;15.70;;;3.60;99.90;;;;;;2055628;28;20023;-70
2022/12/09 03:00:13;;;;;;;25.98;17.20;;;3.60;99.90;;;;;;2039693;29;20035;-69
2022/12/09 03:01:36;;;;;;;27.00;17.38;;;3.60;99.90;;;;;;2048264;28;20035;-69
2022/12/09 03:02:42;;;;;;;25.08;16.35;;;3.60;99.90;;;;;;2055958;28;20031;-69
2022/12/09 03:03:43;;;;;;;24.60;16.85;;;3.60;99.90;;;;;;2055421;28;20030;-70
2022/12/09 03:04:51;;;;;;;25.10;16.65;;;3.60;99.90;;;;;;2056227;28;20029;-69
2022/12/09 03:06:05;;;;;;;27.27;16.90;;;3.60;99.90;;;;;;2056121;28;20026;-69
2022/12/09 03:07:50;;;;;;;28.05;17.67;;;3.60;99.90;;;;;;2056360;28;20455;-69
2022/12/09 03:09:11;;;;;;;25.50;16.15;;;3.60;99.90;;;;;;2055024;28;20041;-69
2022/12/09 03:10:42;;;;;;;25.33;16.23;;;3.60;99.90;;;;;;2055175;28;20061;-70
2022/12/09 03:11:44;;;;;;;25.42;16.60;;;3.60;99.90;;;;;;2053110;28;20035;-70
2022/12/09 03:12:52;;;;;;;25.00;16.40;;;3.50;99.90;;;;;;2056188;28;20031;-69
2022/12/09 03:14:00;;;;;;;25.23;16.42;;;3.60;99.90;;;;;;2049030;28;20065;-70
2022/12/09 03:15:04;;;;;;;24.33;15.93;;;3.60;99.90;;;;;;2056195;28;20185;-69
2022/12/09 03:16:24;;;;;;;24.13;15.88;;;3.60;99.90;;;;;;2056584;28;20110;-69
2022/12/09 03:17:32;;;;;;;24.80;16.63;;;3.60;99.90;;;;;;2056036;28;20105;-70
2022/12/09 03:18:35;;;;;;;24.70;16.35;;;3.60;99.90;;;;;;2057448;28;20066;-69
2022/12/09 03:19:47;;;;;;;26.08;17.08;;;3.60;99.90;;;;;;2064230;28;20069;-70
2022/12/09 03:20:49;;;;;;;26.70;17.20;;;3.60;99.90;;;;;;2057438;28;20033;-69
2022/12/09 03:21:54;;;;;;;24.75;16.75;;;3.60;99.90;;;;;;2056596;28;20743;-69
2022/12/09 03:22:59;;;;;;;26.10;17.15;;;3.60;99.90;;;;;;2063700;28;20037;-70
2022/12/09 03:24:01;;;;;;;27.08;17.52;;;3.60;99.90;;;;;;2062872;28;20030;-69
2022/12/09 03:25:09;;;;;;;27.73;17.65;;;3.60;99.90;;;;;;2055974;28;20085;-70
2022/12/09 03:26:13;;;;;;;26.90;17.20;;;3.50;99.90;;;;;;2055569;28;20054;-70
2022/12/09 03:27:19;;;;;;;26.85;17.13;;;3.50;99.90;;;;;;2056161;28;20031;-70
2022/12/09 03:28:43;;;;;;;26.30;16.98;;;3.60;99.90;;;;;;2056034;28;20019;-70
2022/12/09 03:29:47;;;;;;;25.35;16.30;;;3.60;99.90;;;;;;2056205;28;20035;-68
2022/12/09 03:30:50;;;;;;;24.00;15.80;;;3.60;99.90;;;;;;2056089;28;20423;-68
2022/12/09 03:31:53;;;;;;;25.98;16.48;;;3.60;99.90;;;;;;2056300;28;20598;-70
2022/12/09 03:32:55;;;;;;;24.73;16.08;;;3.60;99.90;;;;;;2055790;28;20019;-69
2022/12/09 03:34:00;;;;;;;23.65;16.13;;;3.60;99.90;;;;;;2055944;28;20455;-70
2022/12/09 03:35:07;;;;;;;25.92;16.50;;;3.60;99.90;;;;;;2056120;28;20038;-68
2022/12/09 03:36:11;;;;;;;26.15;16.70;;;3.60;99.90;;;;;;2054947;28;20634;-69
2022/12/09 03:37:16;;;;;;;23.75;16.02;;;3.60;99.90;;;;;;2055503;28;20035;-69
2022/12/09 03:38:20;;;;;;;24.60;16.35;;;3.60;99.90;;;;;;2056116;28;20034;-70
2022/12/09 03:39:26;;;;;;;23.77;15.82;;;3.60;99.90;;;;;;2055939;28;20069;-69
2022/12/09 03:40:29;;;;;;;24.67;16.38;;;3.60;99.90;;;;;;2056040;28;20690;-70
2022/12/09 03:41:32;;;;;;;24.48;16.30;;;3.60;99.90;;;;;;2055973;28;20027;-70
2022/12/09 03:42:42;;;;;;;24.13;15.88;;;3.60;99.90;;;;;;2055260;28;20413;-70
2022/12/09 03:43:47;;;;;;;;;;;3.50;99.90;;;;;;2055720;28;20039;-70
2022/12/09 03:45:01;;;;;;;25.15;16.08;;;3.50;99.90;;;;;;2054793;28;19913;-68
2022/12/09 03:46:06;;;;;;;26.00;16.02;;;3.50;99.90;;;;;;2052889;28;20049;-70
2022/12/09 03:47:08;;;;;;;28.33;17.38;;;3.50;99.90;;;;;;2047834;28;20050;-69
2022/12/09 03:48:10;;;;;;;24.88;16.60;;;3.50;99.90;;;;;;2048155;28;20057;-69
2022/12/09 03:49:11;;;;;;;24.40;16.50;;;3.50;99.90;;;;;;2048162;29;20034;-69
2022/12/09 03:50:12;;;;;;;27.38;16.92;;;3.50;99.90;;;;;;2047947;29;20090;-69
2022/12/09 03:51:17;;;;;;;27.60;17.20;;;3.50;99.90;;;;;;2047960;29;20043;-69
2022/12/09 03:52:42;;;;;;;24.60;16.17;;;3.50;99.90;;;;;;2047938;28;20027;-70
2022/12/09 03:53:50;;;;;;;25.00;16.02;;;3.50;99.90;;;;;;2055164;28;20034;-69
2022/12/09 03:55:15;;;;;;;23.25;15.55;;;3.50;99.90;;;;;;2054372;28;20520;-70
2022/12/09 03:56:25;;;;;;;27.27;17.10;;;3.50;99.90;;;;;;2047244;28;20078;-69
2022/12/09 03:57:27;;;;;;;27.58;18.10;;;3.50;99.90;;;;;;2055081;28;20030;-70
2022/12/09 03:58:32;;;;;;;29.50;18.35;;;3.50;99.90;;;;;;2054907;28;20194;-70
2022/12/09 03:59:34;;;;;;;26.77;17.52;;;3.50;99.90;;;;;;2055197;28;20030;-70
2022/12/09 04:00:37;;;;;;;26.52;16.88;;;3.50;99.90;;;;;;2055546;28;20026;-70
2022/12/09 04:01:40;;;;;;;25.02;16.17;;;3.50;99.90;;;;;;2055872;28;20022;-69
2022/12/09 04:02:41;;;;;;;25.83;16.10;;;3.50;99.90;;;;;;2055690;28;20069;-69
2022/12/09 04:03:44;;;;;;;22.90;15.57;;;3.50;99.90;;;;;;2055593;28;20038;-69
2022/12/09 04:04:45;;;;;;;25.25;16.40;;;3.50;99.90;;;;;;2054929;28;20789;-69
2022/12/09 04:05:46;;;;;;;25.73;16.50;;;3.50;99.90;;;;;;2054808;28;20031;-70
2022/12/09 04:06:48;;;;;;;25.42;16.15;;;3.50;99.90;;;;;;2055832;28;20134;-69
2022/12/09 04:07:51;;;;;;;23.45;15.73;;;3.50;99.90;;;;;;2055522;28;20116;-68
2022/12/09 04:08:52;;;;;;;23.92;15.90;;;3.50;99.90;;;;;;2055872;28;20065;-70
2022/12/09 04:09:52;;;;;;;24.10;16.35;;;3.50;99.90;;;;;;2055579;28;20027;-69
2022/12/09 04:10:53;;;;;;;22.45;14.73;;;3.50;99.90;;;;;;2055700;28;20031;-71
2022/12/09 04:11:54;;;;;;;23.08;15.18;;;3.50;99.90;;;;;;2047497;28;20078;-69
2022/12/09 04:12:54;;;;;;;21.92;14.65;;;3.50;99.90;;;;;;2054331;28;20038;-70
2022/12/09 04:13:55;;;;;;;23.40;15.23;;;3.50;99.90;;;;;;2055019;28;20035;-70
2022/12/09 04:14:56;;;;;;;23.70;15.40;;;3.50;99.90;;;;;;2054885;28;20103;-71
2022/12/09 04:15:56;;;;;;;24.30;15.95;;;3.50;99.90;;;;;;2055415;28;20073;-70
2022/12/09 04:16:57;;;;;;;23.88;15.55;;;3.50;99.90;;;;;;2055149;28;20126;-70
2022/12/09 04:17:58;;;;;;;23.90;15.20;;;3.50;99.90;;;;;;2055018;28;20023;-70
2022/12/09 04:18:59;;;;;;;23.55;15.55;;;3.50;99.90;;;;;;2055166;28;20110;-70
2022/12/09 04:19:59;;;;;;;23.58;15.57;;;3.50;99.90;;;;;;2054941;28;20027;-71
2022/12/09 04:21:05;;;;;;;24.38;15.52;;;3.50;99.90;;;;;;2055223;28;20053;-70
2022/12/09 04:22:05;;;;;;;24.13;15.68;;;3.50;99.90;;;;;;2054649;28;20398;-70
2022/12/09 04:23:06;;;;;;;23.77;15.68;;;3.50;99.90;;;;;;2055186;28;20034;-71
2022/12/09 04:24:07;;;;;;;23.45;15.43;;;3.60;99.90;;;;;;2063447;28;20026;-71
2022/12/09 04:25:08;;;;;;;23.05;15.43;;;3.60;99.90;;;;;;2056238;28;20026;-70
2022/12/09 04:26:21;;;;;;;24.98;16.10;;;3.60;99.90;;;;;;2055094;28;20062;-70
2022/12/09 04:27:21;;;;;;;24.67;16.10;;;3.60;99.90;;;;;;2056356;28;20059;-69
2022/12/09 04:28:22;;;;;;;27.25;17.50;;;3.60;99.90;;;;;;2056889;28;20254;-69
2022/12/09 04:29:23;;;;;;;27.60;18.17;;;3.60;99.90;;;;;;2060548;28;20599;-69
2022/12/09 04:30:23;;;;;;;31.95;19.67;;;3.60;99.90;;;;;;2060014;28;20422;-69
2022/12/09 04:31:24;;;;;;;29.42;19.13;;;3.60;99.90;;;;;;2056176;28;20162;-69
2022/12/09 04:32:25;;;;;;;29.05;18.48;;;3.60;99.90;;;;;;2053625;28;20075;-70
2022/12/09 04:33:26;;;;;;;27.35;17.83;;;3.60;99.90;;;;;;2056322;28;20034;-69
2022/12/09 04:34:26;;;;;;;27.17;17.88;;;3.60;99.90;;;;;;2056399;28;20022;-69
2022/12/09 04:35:27;;;;;;;29.23;18.80;;;3.60;99.90;;;;;;2056856;28;20093;-69
2022/12/09 04:36:28;;;;;;;28.42;18.33;;;3.60;99.90;;;;;;2056778;28;20156;-69
2022/12/09 04:37:29;;;;;;;29.08;18.70;;;3.60;99.90;;;;;;2057382;28;20649;-69
2022/12/09 04:38:30;;;;;;;28.67;18.85;;;3.60;99.90;;;;;;2056871;28;20450;-69
2022/12/09 04:39:30;;;;;;;26.10;17.38;;;3.60;99.90;;;;;;2056027;28;20050;-69
2022/12/09 04:40:31;;;;;;;29.65;18.88;;;3.60;99.90;;;;;;2055803;28;20026;-69
2022/12/09 04:41:32;;;;;;;28.95;19.25;;;3.60;99.90;;;;;;2055852;28;20473;-69
2022/12/09 04:42:33;;;;;;;28.70;18.40;;;3.60;99.90;;;;;;2055892;28;20077;-72
2022/12/09 04:43:34;;;;;;;26.80;18.00;;;3.60;99.90;;;;;;2055780;28;20201;-70
2022/12/09 04:44:34;;;;;;;28.55;18.20;;;3.60;99.90;;;;;;2054652;28;20130;-70
2022/12/09 04:45:35;;;;;;;29.52;18.27;;;3.60;99.90;;;;;;2054772;28;20477;-69
2022/12/09 04:46:36;;;;;;;26.75;17.63;;;3.60;99.90;;;;;;2055445;28;20031;-69
2022/12/09 04:47:37;;;;;;;26.40;17.35;;;3.60;99.90;;;;;;2055170;28;20505;-69
2022/12/09 04:48:38;;;;;;;26.98;17.38;;;3.60;99.90;;;;;;2055317;28;20034;-69
2022/12/09 04:49:38;;;;;;;26.92;17.83;;;3.60;99.90;;;;;;2047260;28;20042;-68
2022/12/09 04:50:40;;;;;;;25.73;17.20;;;3.60;99.90;;;;;;2046922;28;20030;-69
2022/12/09 04:51:41;;;;;;;24.95;16.58;;;3.60;99.90;;;;;;2054970;28;20154;-72
2022/12/09 04:52:42;;;;;;;25.75;17.00;;;3.60;99.90;;;;;;2055127;28;20046;-68
2022/12/09 04:53:43;;;;;;;24.17;16.63;;;3.60;99.90;;;;;;2054920;28;20046;-68
2022/12/09 04:54:44;;;;;;;24.98;16.90;;;3.60;99.90;;;;;;2048017;28;20382;-69
2022/12/09 04:55:45;;;;;;;24.63;16.50;;;3.60;99.90;;;;;;2049921;28;20449;-69
2022/12/09 04:56:48;;;;;;;25.00;16.83;;;3.60;99.90;;;;;;2055147;28;20091;-70
2022/12/09 04:57:49;;;;;;;25.48;16.83;;;3.60;99.90;;;;;;2056001;28;20102;-69
2022/12/09 04:58:50;;;;;;;23.88;16.40;;;3.60;99.90;;;;;;2056235;28;20403;-69
2022/12/09 04:59:50;;;;;;;28.60;17.67;;;3.60;99.90;;;;;;2056892;28;20058;-70
2022/12/09 05:00:51;;;;;;;25.83;16.90;;;3.60;99.90;;;;;;2056453;28;20122;-70
2022/12/09 05:01:52;;;;;;;25.27;16.45;;;3.60;99.90;;;;;;2056573;28;20319;-69
2022/12/09 05:02:53;;;;;;;25.10;16.73;;;3.60;99.90;;;;;;2055606;28;20043;-69
2022/12/09 05:03:53;;;;;;;26.10;16.90;;;3.60;99.90;;;;;;2047678;28;20118;-69
2022/12/09 05:04:54;;;;;;;23.15;15.93;;;3.60;99.90;;;;;;2055244;28;20034;-69
2022/12/09 05:05:55;;;;;;;25.00;16.27;;;3.70;99.90;;;;;;2055885;28;20037;-69
2022/12/09 05:06:55;;;;;;;25.40;16.15;;;3.60;99.90;;;;;;2056065;28;20023;-69
2022/12/09 05:07:56;;;;;;;23.40;15.95;;;3.60;99.90;;;;;;2055805;28;20125;-69
2022/12/09 05:08:57;;;;;;;24.05;15.40;;;3.70;99.90;;;;;;2064086;28;20081;-69
2022/12/09 05:09:58;;;;;;;22.33;14.80;;;3.60;99.90;;;;;;2061698;28;20125;-68
2022/12/09 05:10:59;;;;;;;22.70;14.77;;;3.60;99.90;;;;;;2055291;28;20089;-68
2022/12/09 05:11:59;;;;;;;21.90;14.80;;;3.60;99.90;;;;;;2063456;28;20023;-69
2022/12/09 05:13:00;;;;;;;21.73;14.32;;;3.60;99.90;;;;;;2055739;28;20027;-70
2022/12/09 05:14:01;;;;;;;22.05;14.85;;;3.60;99.90;;;;;;2055091;28;20524;-69
2022/12/09 05:15:02;;;;;;;20.98;14.07;;;3.60;99.90;;;;;;2055264;28;20030;-69
2022/12/09 05:16:09;;;;;;;20.83;14.20;;;3.60;99.90;;;;;;2055004;28;20046;-69
2022/12/09 05:17:10;;;;;;;21.80;14.40;;;3.60;99.90;;;;;;2055014;28;20118;-70
2022/12/09 05:18:10;;;;;;;20.27;13.93;;;3.60;99.90;;;;;;2056307;28;20046;-69
2022/12/09 05:19:11;;;;;;;21.67;14.50;;;3.60;99.90;;;;;;2055193;28;20027;-69
2022/12/09 05:20:12;;;;;;;24.92;15.20;;;3.50;99.90;;;;;;2054971;28;20033;-70
2022/12/09 05:21:16;;;;;;;22.85;14.90;;;3.60;99.90;;;;;;2055243;28;20153;-69
2022/12/09 05:22:17;;;;;;;23.17;14.98;;;3.60;99.90;;;;;;2055248;28;20109;-69
2022/12/09 05:23:18;;;;;;;20.70;14.43;;;3.60;99.90;;;;;;2062844;28;20015;-69
2022/12/09 05:24:19;;;;;;;22.15;14.85;;;3.60;99.90;;;;;;2062731;28;20043;-69
2022/12/09 05:25:19;;;;;;;21.42;14.57;;;3.60;99.90;;;;;;2056924;28;20049;-70
2022/12/09 05:26:22;;;;;;;21.65;13.82;;;3.60;99.90;;;;;;2059174;28;20030;-70
2022/12/09 05:27:23;;;;;;;21.15;14.50;;;3.60;99.90;;;;;;2054678;28;20033;-70
2022/12/09 05:28:24;;;;;;;21.58;14.40;;;3.60;99.90;;;;;;2054463;28;20496;-70
2022/12/09 05:29:24;;;;;;;20.42;13.90;;;3.50;99.90;;;;;;2054761;28;20136;-70